Time;durP1;ratioP1;P1;durP2;ratioP2;P2;SDS_P1;SDS_P2;PMS_P1;PMS_P2;Temp;Humidity;BMP_temperature;BMP_pressure;BME280_temperature;BME280_humidity;BME280_pressure;Samples;Min_cycle;Max_cycle;Signal;HPM_P1;HPM_P2
2022/01/08 00:01:11;;;;;;;9.25;4.80;;;;;;;-1.15;90.37;93426.81;5009754;28;20049;-61
2022/01/08 00:03:39;;;;;;;9.68;5.30;;;;;;;-1.18;90.53;93427.53;5009248;28;20038;-60
2022/01/08 00:06:07;;;;;;;9.27;4.57;;;;;;;-1.12;90.07;93439.59;5009736;28;20041;-61
2022/01/08 00:08:34;;;;;;;10.50;5.03;;;;;;;-1.06;90.15;93432.00;5009490;28;20053;-61
2022/01/08 00:11:01;;;;;;;11.43;5.53;;;;;;;-1.00;89.58;93425.22;5009689;28;20064;-61
2022/01/08 00:13:28;;;;;;;11.32;5.45;;;;;;;-1.08;89.92;93413.50;5009230;28;20045;-60
2022/01/08 00:15:55;;;;;;;11.57;5.90;;;;;;;-0.99;90.33;93409.81;5009853;28;20053;-61
2022/01/08 00:18:21;;;;;;;11.48;5.68;;;;;;;-0.97;89.90;93402.94;5008671;28;20089;-59
2022/01/08 00:20:48;;;;;;;10.47;5.60;;;;;;;-0.97;89.99;93392.16;5009650;28;20048;-60
2022/01/08 00:23:15;;;;;;;10.38;5.55;;;;;;;-0.96;89.68;93385.66;5009294;28;20053;-60
2022/01/08 00:25:42;;;;;;;14.50;6.10;;;;;;;-0.97;89.46;93378.69;5009208;28;20029;-60
2022/01/08 00:28:08;;;;;;;11.73;5.70;;;;;;;-0.94;89.42;93371.84;5008204;28;20285;-61
2022/01/08 00:30:35;;;;;;;12.60;6.35;;;;;;;-0.88;89.37;93371.19;5009236;28;20049;-61
2022/01/08 00:33:02;;;;;;;11.80;6.10;;;;;;;-0.93;88.75;93374.16;5008224;28;20112;-61
2022/01/08 00:35:31;;;;;;;11.38;5.80;;;;;;;-0.91;89.46;93369.19;5009213;28;20041;-60
2022/01/08 00:37:59;;;;;;;13.32;7.20;;;;;;;-0.82;89.09;93366.31;5009159;28;20052;-61
2022/01/08 00:40:26;;;;;;;12.77;6.10;;;;;;;-0.90;89.02;93365.38;5009110;28;20068;-60
2022/01/08 00:42:52;;;;;;;12.13;6.28;;;;;;;-0.90;89.09;93351.91;5009453;28;20048;-60
2022/01/08 00:45:19;;;;;;;11.47;5.97;;;;;;;-0.94;88.82;93353.75;5008205;28;20095;-61
2022/01/08 00:47:46;;;;;;;10.70;5.45;;;;;;;-0.85;88.68;93354.31;5009278;28;20038;-61
2022/01/08 00:50:14;;;;;;;11.07;5.32;;;;;;;-0.83;88.65;93345.88;5009387;28;20479;-61
2022/01/08 00:52:42;;;;;;;9.95;5.20;;;;;;;-0.85;88.56;93354.31;5009019;28;20165;-60
2022/01/08 00:55:10;;;;;;;12.77;6.10;;;;;;;-0.82;88.78;93347.44;5009208;28;20380;-61
2022/01/08 00:57:37;;;;;;;11.67;6.03;;;;;;;-0.76;88.31;93356.78;5008660;28;20064;-60
2022/01/08 01:00:10;;;;;;;11.65;5.90;;;;;;;-0.83;88.36;93346.63;5007588;28;20037;-61
2022/01/08 01:02:38;;;;;;;11.23;5.80;;;;;;;-0.73;88.19;93345.28;5008890;28;20050;-61
2022/01/08 01:05:06;;;;;;;11.20;5.28;;;;;;;-0.63;88.06;93343.91;5007609;28;20092;-61
2022/01/08 01:07:33;;;;;;;11.20;5.65;;;;;;;-0.71;87.90;93348.41;5008854;28;20068;-60
2022/01/08 01:10:01;;;;;;;9.83;5.07;;;;;;;-0.72;88.57;93340.69;5012757;28;20064;-61
2022/01/08 01:12:27;;;;;;;31.98;13.57;;;;;;;-0.59;87.88;93338.59;5011326;28;20478;-60
2022/01/08 01:15:09;;;;;;;11.98;5.60;;;;;;;-0.73;87.90;93337.19;5012562;28;20053;-61
2022/01/08 01:17:36;;;;;;;9.48;5.07;;;;;;;-0.65;87.88;93338.88;5012742;28;20054;-61
2022/01/08 01:20:05;;;;;;;10.07;5.35;;;;;;;-0.67;87.80;93324.97;5012907;28;20048;-61
2022/01/08 01:22:42;;;;;;;12.83;5.30;;;;;;;-0.63;87.60;93323.13;5012589;28;20056;-60
2022/01/08 01:25:13;;;;;;;11.32;5.35;;;;;;;-0.70;88.42;93309.56;5012553;28;20048;-61
2022/01/08 01:30:18;;;;;;;11.02;5.18;;;;;;;-0.72;89.44;93308.34;5012101;28;20044;-61
2022/01/08 01:47:00;;;;;;;9.48;4.82;;;;;;;-0.75;87.95;93284.81;4979778;28;20294;-61
2022/01/08 01:47:03;;;;;;;15.25;5.82;;;;;;;-0.71;87.75;93283.72;4992757;28;20527;-60
2022/01/08 01:49:32;;;;;;;10.77;4.67;;;;;;;-0.65;86.89;93289.59;5000549;28;20046;-61
2022/01/08 01:52:00;;;;;;;10.95;4.30;;;;;;;-0.67;87.14;93289.19;5010903;28;20049;-61
2022/01/08 01:54:29;;;;;;;10.60;4.05;;;;;;;-0.63;86.85;93281.94;5011592;28;20433;-60
2022/01/08 01:56:57;;;;;;;12.32;5.32;;;;;;;-0.60;87.55;93283.94;5012410;28;20056;-61
2022/01/08 01:59:29;;;;;;;9.30;4.72;;;;;;;-0.59;87.75;93282.00;5011539;28;20042;-60
2022/01/08 02:01:57;;;;;;;9.87;4.70;;;;;;;-0.68;89.31;93268.78;5011078;28;20364;-61
2022/01/08 02:04:25;;;;;;;10.25;4.25;;;;;;;-0.76;90.17;93267.88;5011615;28;20487;-59
2022/01/08 02:06:52;;;;;;;10.15;4.78;;;;;;;-0.79;90.98;93265.13;5012243;28;20052;-60
2022/01/08 02:10:17;;;;;;;9.75;4.90;;;;;;;-148.33;100.00;65374.31;5027003;28;20129;-60
2022/01/08 02:13:43;;;;;;;8.10;4.05;;;;;;;-148.33;100.00;65374.31;5008618;28;20049;-60
2022/01/08 02:17:08;;;;;;;9.87;3.40;;;;;;;-148.33;100.00;65374.31;5010748;28;20211;-61
2022/01/08 02:19:42;;;;;;;8.73;4.00;;;;;;;-0.79;90.98;93265.13;5010420;28;20606;-60
2022/01/08 02:22:15;;;;;;;7.55;3.60;;;;;;;-0.76;90.59;93232.84;5011741;28;20048;-61
2022/01/08 02:24:44;;;;;;;7.60;3.50;;;;;;;-0.78;90.74;93232.44;5011511;28;20045;-60
2022/01/08 02:27:12;;;;;;;9.07;4.50;;;;;;;-0.81;91.10;93220.44;5011389;28;20045;-61
2022/01/08 02:29:39;;;;;;;9.10;4.20;;;;;;;-0.78;91.02;93228.97;5011000;28;20052;-60
2022/01/08 02:32:18;;;;;;;7.97;3.97;;;;;;;-0.76;91.75;93237.47;5011699;28;20038;-61
2022/01/08 02:34:48;;;;;;;7.38;3.72;;;;;;;-0.82;92.49;93218.13;5011167;28;20046;-60
2022/01/08 02:37:16;;;;;;;7.50;3.60;;;;;;;-0.86;92.96;93218.06;5011252;28;20253;-61
2022/01/08 02:39:43;;;;;;;7.20;3.50;;;;;;;-0.89;93.77;93210.69;5010994;28;20042;-61
2022/01/08 02:42:15;;;;;;;6.93;3.40;;;;;;;-0.91;94.12;93207.59;5011326;28;20120;-61
2022/01/08 02:44:43;;;;;;;7.72;3.85;;;;;;;-0.95;94.14;93211.38;5010917;28;20072;-61
2022/01/08 02:47:14;;;;;;;9.38;4.68;;;;;;;-0.91;94.36;93215.66;5011032;28;20050;-61
2022/01/08 02:49:41;;;;;;;6.72;3.20;;;;;;;-0.92;94.15;93224.13;5010893;28;20064;-60
2022/01/08 02:52:09;;;;;;;7.20;3.90;;;;;;;-0.97;94.45;93203.63;5011384;28;20042;-60
2022/01/08 02:54:36;;;;;;;6.80;3.60;;;;;;;-0.94;94.75;93205.63;5010332;28;20046;-60
2022/01/08 02:57:03;;;;;;;6.28;3.50;;;;;;;-0.94;94.73;93202.16;5009553;28;20042;-61
2022/01/08 02:59:32;;;;;;;5.82;3.25;;;;;;;-0.90;93.97;93197.63;5009203;28;20060;-60
2022/01/08 03:01:59;;;;;;;6.70;3.10;;;;;;;-0.86;94.45;93193.06;5011097;28;20042;-61
2022/01/08 03:04:25;;;;;;;6.30;2.80;;;;;;;-0.86;93.59;93179.59;5010650;28;20720;-60
2022/01/08 03:06:52;;;;;;;4.27;2.20;;;;;;;-0.87;93.19;93178.03;5010769;28;20038;-60
2022/01/08 03:09:19;;;;;;;4.00;2.08;;;;;;;-0.87;92.44;93180.72;5010719;28;20164;-60
2022/01/08 03:11:46;;;;;;;5.05;2.42;;;;;;;-0.84;92.04;93186.16;5010103;28;20422;-60
2022/01/08 03:14:13;;;;;;;4.43;2.30;;;;;;;-0.82;92.07;93178.50;5010313;28;20045;-61
2022/01/08 03:16:39;;;;;;;5.70;2.40;;;;;;;-0.86;91.91;93176.91;5009130;28;20046;-60
2022/01/08 03:19:12;;;;;;;4.40;1.90;;;;;;;-0.86;91.85;93188.44;5010735;28;20049;-60
2022/01/08 03:21:42;;;;;;;3.47;1.83;;;;;;;-0.83;91.71;93195.78;5010099;28;20058;-60
2022/01/08 03:24:15;;;;;;;4.72;2.35;;;;;;;-0.83;91.65;93193.09;5010622;28;20041;-61
2022/01/08 03:26:41;;;;;;;4.38;2.00;;;;;;;-0.82;91.58;93197.34;5010251;28;20038;-60
2022/01/08 03:29:08;;;;;;;3.67;2.28;;;;;;;-0.78;91.57;93199.34;5010419;28;20062;-60
2022/01/08 03:31:35;;;;;;;4.10;2.00;;;;;;;-0.77;91.20;93184.72;5009204;28;20119;-60
2022/01/08 03:34:03;;;;;;;4.28;2.00;;;;;;;-0.75;90.89;93185.13;5009236;28;20046;-61
2022/01/08 03:36:29;;;;;;;3.50;1.98;;;;;;;-0.70;90.67;93187.53;5009728;28;20080;-60
2022/01/08 03:38:56;;;;;;;3.28;1.60;;;;;;;-0.69;90.29;93186.38;5010006;28;20045;-61
2022/01/08 03:41:23;;;;;;;4.40;1.90;;;;;;;-0.70;90.58;93193.69;5009414;28;20394;-60
2022/01/08 03:43:50;;;;;;;3.37;1.63;;;;;;;-0.71;90.98;93186.72;5009967;28;20517;-61
2022/01/08 03:46:20;;;;;;;3.72;1.60;;;;;;;-0.76;91.17;93183.59;5024964;28;20046;-61
2022/01/08 03:51:31;;;;;;;3.85;1.50;;;;;;;-0.72;90.19;93174.41;5009386;28;20046;-60
2022/01/08 03:53:58;;;;;;;2.58;1.30;;;;;;;-0.71;90.26;93170.56;5009738;28;20049;-61
2022/01/08 03:56:25;;;;;;;3.53;1.80;;;;;;;-0.71;90.31;93172.50;5009246;28;20042;-60
2022/01/08 03:58:52;;;;;;;4.50;2.15;;;;;;;-0.68;89.58;93161.78;5010127;28;20052;-60
2022/01/08 04:01:19;;;;;;;3.08;1.60;;;;;;;-0.67;90.03;93174.09;4997940;28;20488;-61
2022/01/08 04:03:46;;;;;;;2.83;1.30;;;;;;;-0.68;89.83;93175.25;5005366;28;20906;-60
2022/01/08 04:06:13;;;;;;;3.10;1.50;;;;;;;-0.73;90.14;93164.00;5008349;28;20050;-61
2022/01/08 04:08:39;;;;;;;2.90;1.50;;;;;;;-0.67;89.81;93173.31;5024225;28;20054;-60
2022/01/08 04:11:06;;;;;;;2.10;0.90;;;;;;;-0.69;89.40;93170.22;5009833;28;20034;-60
2022/01/08 04:13:36;;;;;;;2.00;1.00;;;;;;;-0.68;89.68;93169.09;5007373;28;20037;-60
2022/01/08 04:16:12;;;;;;;2.45;1.27;;;;;;;-0.72;90.16;93177.13;5009839;28;20044;-60
2022/01/08 04:18:39;;;;;;;2.53;0.80;;;;;;;-0.75;90.46;93177.81;5023358;28;20435;-61
2022/01/08 04:23:52;;;;;;;2.10;1.10;;;;;;;-0.76;90.37;93167.44;5009081;28;20711;-61
2022/01/08 04:26:22;;;;;;;2.28;1.00;;;;;;;-0.77;90.92;93173.94;5009596;28;20127;-61
2022/01/08 04:28:55;;;;;;;1.95;0.95;;;;;;;-0.78;90.93;93175.88;5009010;28;20354;-60
2022/01/08 04:31:22;;;;;;;3.05;1.30;;;;;;;-0.81;91.17;93174.66;5009219;28;20471;-60
2022/01/08 04:33:50;;;;;;;2.60;1.00;;;;;;;-0.82;91.68;93185.81;5009833;28;20045;-60
2022/01/08 04:36:17;;;;;;;2.70;1.05;;;;;;;-0.87;92.42;93186.09;5009418;28;20060;-61
2022/01/08 04:38:44;;;;;;;2.80;1.40;;;;;;;-0.86;93.17;93179.59;5007984;28;20049;-60
2022/01/08 04:41:11;;;;;;;2.50;1.20;;;;;;;-0.78;93.38;93186.63;5009697;28;20042;-60
2022/01/08 04:43:42;;;;;;;3.03;1.50;;;;;;;-0.79;93.46;93182.38;5006685;28;20040;-60
2022/01/08 04:46:09;;;;;;;3.33;1.63;;;;;;;-0.85;94.29;93186.53;5009844;28;20046;-60
2022/01/08 04:48:36;;;;;;;2.60;1.20;;;;;;;-0.90;94.17;93186.84;5008804;28;20053;-60
2022/01/08 04:51:02;;;;;;;3.00;1.63;;;;;;;-0.90;94.22;93179.53;5008091;28;20046;-61
2022/01/08 04:53:29;;;;;;;2.72;1.20;;;;;;;-0.87;94.27;93186.09;5008856;28;20513;-60
2022/01/08 04:55:56;;;;;;;5.50;2.60;;;;;;;-0.85;94.01;93187.28;5009465;28;20487;-60
2022/01/08 04:58:22;;;;;;;2.80;1.30;;;;;;;-0.73;93.59;93188.25;5008751;28;20483;-59
2022/01/08 05:00:49;;;;;;;3.08;1.02;;;;;;;-0.73;92.48;93193.63;5009036;28;20261;-60
2022/01/08 05:03:16;;;;;;;2.13;1.15;;;;;;;-0.68;91.86;93194.09;5008755;28;20072;-61
2022/01/08 05:05:43;;;;;;;3.05;1.70;;;;;;;-0.71;91.48;93202.91;5008627;28;20044;-60
2022/01/08 05:08:10;;;;;;;2.35;1.35;;;;;;;-0.57;90.35;93201.56;5009237;28;20065;-60
2022/01/08 05:10:36;;;;;;;2.80;0.80;;;;;;;-0.58;90.18;93208.09;5008509;28;20058;-61
2022/01/08 05:13:05;;;;;;;2.10;1.13;;;;;;;-0.59;89.90;93207.31;5009244;28;20311;-60
2022/01/08 05:15:33;;;;;;;1.75;0.90;;;;;;;-0.49;89.94;93236.34;5008560;28;20045;-60
2022/01/08 05:18:01;;;;;;;2.05;0.98;;;;;;;-0.46;89.48;93227.53;5009284;28;20044;-60
2022/01/08 05:20:32;;;;;;;1.90;0.93;;;;;;;-0.41;89.13;93235.31;5008380;28;20052;-60
2022/01/08 05:23:02;;;;;;;1.73;0.73;;;;;;;-0.41;89.07;93248.78;5009180;28;20386;-60
2022/01/08 05:25:30;;;;;;;5.70;2.80;;;;;;;-0.46;90.57;93248.34;5008282;28;20437;-60
2022/01/08 05:27:57;;;;;;;4.15;1.80;;;;;;;-0.42;90.31;93236.47;5008926;28;20038;-60
2022/01/08 05:30:26;;;;;;;2.33;0.82;;;;;;;-0.37;90.19;93261.56;5008484;28;20046;-59
2022/01/08 05:32:53;;;;;;;2.70;0.82;;;;;;;-0.35;89.96;93267.34;5009005;28;20046;-61
2022/01/08 05:35:21;;;;;;;3.30;0.70;;;;;;;-0.36;90.72;93260.41;5007655;28;20462;-61
2022/01/08 05:37:48;;;;;;;3.15;0.70;;;;;;;-0.37;90.68;93272.34;5039014;28;21579;-60
2022/01/08 05:40:15;;;;;;;3.28;1.17;;;;;;;-0.40;91.64;93290.03;5007438;28;20419;-60
2022/01/08 05:42:42;;;;;;;1.70;0.70;;;;;;;-0.34;91.41;93299.34;5006256;28;20042;-61
2022/01/08 05:45:09;;;;;;;2.17;0.90;;;;;;;-0.34;91.15;93303.94;5008257;28;20037;-61
2022/01/08 05:47:36;;;;;;;2.17;0.70;;;;;;;-0.37;91.32;93312.78;5008844;28;20050;-61
2022/01/08 05:50:05;;;;;;;1.90;0.77;;;;;;;-0.38;91.96;93309.31;5009088;28;20045;-61
2022/01/08 05:52:31;;;;;;;2.40;0.95;;;;;;;-0.46;93.01;93313.03;5008295;28;20046;-60
2022/01/08 05:54:58;;;;;;;2.33;0.95;;;;;;;-0.37;93.14;93324.31;5010321;28;20045;-60
2022/01/08 05:57:25;;;;;;;2.30;1.10;;;;;;;-0.30;93.61;93332.53;5011895;28;20038;-60
2022/01/08 05:59:52;;;;;;;2.10;0.70;;;;;;;-0.25;92.43;93342.25;5012238;28;20060;-61
2022/01/08 06:02:19;;;;;;;2.10;0.80;;;;;;;-0.38;92.55;93351.63;5012453;28;20133;-60
2022/01/08 06:04:46;;;;;;;3.38;0.80;;;;;;;-0.50;93.06;93356.09;5011851;28;20108;-60
2022/01/08 06:07:13;;;;;;;3.78;1.80;;;;;;;-0.35;93.10;93364.41;5012188;28;20056;-61
2022/01/08 06:09:40;;;;;;;2.33;1.20;;;;;;;-0.63;93.40;93378.94;5011410;28;20115;-60
2022/01/08 06:12:08;;;;;;;1.90;0.80;;;;;;;-0.62;92.97;93369.75;5012256;28;20042;-60
2022/01/08 06:14:35;;;;;;;2.72;0.80;;;;;;;-0.59;92.31;93387.09;5011028;28;20057;-61
2022/01/08 06:17:02;;;;;;;1.90;1.02;;;;;;;-0.55;92.70;93399.50;5011761;28;20041;-60
2022/01/08 06:19:29;;;;;;;2.00;0.90;;;;;;;-0.57;91.64;93409.09;5011046;28;20435;-60
2022/01/08 06:21:56;;;;;;;2.78;1.00;;;;;;;-0.65;91.17;93414.31;5011690;28;20042;-60
2022/01/08 06:24:22;;;;;;;2.73;1.20;;;;;;;-0.82;92.37;93429.03;5010926;28;20057;-61
2022/01/08 06:26:49;;;;;;;2.05;0.80;;;;;;;-0.89;91.72;93423.50;5011500;28;20054;-61
2022/01/08 06:29:16;;;;;;;2.03;1.00;;;;;;;-1.04;90.80;93432.44;5011732;28;20107;-60
2022/01/08 06:31:43;;;;;;;2.13;1.10;;;;;;;-0.98;91.79;93452.56;5011087;28;20033;-60
2022/01/08 06:34:10;;;;;;;2.30;1.20;;;;;;;-0.99;90.07;93455.59;5043383;28;20046;-60
2022/01/08 06:36:37;;;;;;;2.30;1.10;;;;;;;-1.01;89.42;93461.34;5011007;28;20052;-61
2022/01/08 06:39:04;;;;;;;2.50;0.93;;;;;;;-0.97;88.27;93462.19;5011545;28;20048;-60
2022/01/08 06:41:30;;;;;;;2.20;0.90;;;;;;;-1.01;87.24;93467.53;5010823;28;20045;-61
2022/01/08 06:43:57;;;;;;;2.30;1.20;;;;;;;-0.99;86.77;93469.84;5011295;28;20049;-61
2022/01/08 06:46:25;;;;;;;2.55;1.27;;;;;;;-1.04;87.41;93470.91;5010893;28;20549;-61
2022/01/08 06:48:51;;;;;;;2.10;0.97;;;;;;;-1.03;87.27;93477.88;5043010;28;20494;-60
2022/01/08 06:51:18;;;;;;;5.15;1.10;;;;;;;-0.86;87.29;93484.75;5011411;28;20046;-61
2022/01/08 06:53:45;;;;;;;3.17;1.40;;;;;;;-1.08;88.15;93490.81;5009511;28;20062;-60
2022/01/08 06:56:12;;;;;;;3.00;1.50;;;;;;;-1.00;89.71;93503.31;5011201;28;20046;-61
2022/01/08 06:58:41;;;;;;;3.10;1.38;;;;;;;-0.87;89.55;93515.50;5010400;28;20046;-60
2022/01/08 07:01:08;;;;;;;3.83;1.20;;;;;;;-1.03;88.99;93522.84;5010923;28;20037;-60
2022/01/08 07:03:35;;;;;;;2.35;1.20;;;;;;;-0.99;89.03;93531.78;5010475;28;20042;-60
2022/01/08 07:06:02;;;;;;;2.65;1.40;;;;;;;-1.07;88.47;93535.47;5010224;28;20501;-60
2022/01/08 07:08:29;;;;;;;3.05;1.70;;;;;;;-0.87;89.44;93549.75;5010483;28;20052;-61
2022/01/08 07:10:56;;;;;;;3.28;1.40;;;;;;;-1.00;89.70;93551.78;5011101;28;20049;-61
2022/01/08 07:13:23;;;;;;;3.43;1.20;;;;;;;-1.19;89.61;93554.41;5010188;28;20499;-60
2022/01/08 07:15:49;;;;;;;2.72;1.15;;;;;;;-1.13;89.66;93564.56;5010451;28;20049;-61
2022/01/08 07:18:16;;;;;;;2.80;1.40;;;;;;;-1.11;89.69;93570.38;5010929;28;20060;-60
2022/01/08 07:20:43;;;;;;;3.13;1.67;;;;;;;-1.32;91.80;93569.91;5008903;28;20399;-61
2022/01/08 07:23:10;;;;;;;4.30;2.20;;;;;;;-1.26;92.45;93574.66;5010803;28;20052;-61
2022/01/08 07:25:36;;;;;;;4.60;2.20;;;;;;;-1.17;92.28;93585.25;5008063;28;20046;-61
2022/01/08 07:28:03;;;;;;;2.78;1.50;;;;;;;-1.36;92.03;93579.81;5012976;28;20076;-61
2022/01/08 07:30:30;;;;;;;2.55;1.23;;;;;;;-1.42;91.51;93593.50;5010078;28;20046;-61
2022/01/08 07:32:57;;;;;;;2.80;1.40;;;;;;;-1.43;90.64;93588.47;5010416;28;20053;-61
2022/01/08 07:35:23;;;;;;;4.85;1.65;;;;;;;-1.33;90.46;93606.78;5010356;28;20442;-60
2022/01/08 07:37:52;;;;;;;3.40;1.70;;;;;;;-1.22;89.57;93599.75;5010347;28;20038;-61
2022/01/08 07:40:21;;;;;;;3.83;1.70;;;;;;;-1.26;90.14;93603.50;5010630;28;20052;-60
2022/01/08 07:42:50;;;;;;;4.78;2.00;;;;;;;-1.21;90.71;93611.31;5009319;28;20901;-61
2022/01/08 07:45:18;;;;;;;4.85;2.00;;;;;;;-1.19;90.97;93608.28;5010330;28;20057;-60
2022/01/08 07:47:46;;;;;;;4.45;1.85;;;;;;;-1.35;89.37;93614.44;5009483;28;20041;-60
2022/01/08 07:50:14;;;;;;;3.50;1.60;;;;;;;-1.31;88.78;93636.88;5009051;28;20050;-60
2022/01/08 07:52:42;;;;;;;4.07;1.60;;;;;;;-1.36;89.00;93639.81;5009452;28;20042;-60
2022/01/08 07:55:11;;;;;;;3.42;1.83;;;;;;;-1.01;89.07;93647.97;5008949;28;20045;-60
2022/01/08 07:57:38;;;;;;;4.05;1.90;;;;;;;-1.08;87.72;93655.09;5009517;28;20038;-60
2022/01/08 08:00:06;;;;;;;5.10;1.98;;;;;;;-1.02;88.29;93662.56;5010137;28;20034;-60
2022/01/08 08:02:32;;;;;;;4.27;1.80;;;;;;;-0.88;87.48;93664.03;5009437;28;20053;-60
2022/01/08 08:04:59;;;;;;;4.05;1.75;;;;;;;-0.87;87.37;93670.97;5010013;28;20034;-61
2022/01/08 08:07:36;;;;;;;4.03;2.10;;;;;;;-0.84;87.42;93681.84;5009381;28;20364;-60
2022/01/08 08:10:10;;;;;;;10.68;1.85;;;;;;;-1.02;87.52;93683.31;5009802;28;20529;-61
2022/01/08 08:12:37;;;;;;;4.68;2.10;;;;;;;-0.76;85.84;93690.09;5009197;28;20361;-61
2022/01/08 08:15:06;;;;;;;6.00;2.23;;;;;;;-0.83;85.87;93683.38;5009474;28;20041;-61
2022/01/08 08:17:34;;;;;;;12.48;2.55;;;;;;;-0.84;85.83;93686.47;5008944;28;20052;-61
2022/01/08 08:20:03;;;;;;;7.63;2.30;;;;;;;-0.79;86.56;93694.25;5009453;28;20103;-60
2022/01/08 08:22:30;;;;;;;12.30;2.40;;;;;;;-0.94;87.20;93697.75;5008952;28;20061;-61
2022/01/08 08:24:57;;;;;;;6.75;2.63;;;;;;;-0.84;87.30;93699.94;5009418;28;20049;-60
2022/01/08 08:27:24;;;;;;;4.10;1.83;;;;;;;-0.89;86.34;93690.19;5009040;28;20046;-60
2022/01/08 08:29:51;;;;;;;9.27;2.05;;;;;;;-0.87;86.11;93709.47;5040620;28;20065;-61
2022/01/08 08:32:17;;;;;;;10.80;3.25;;;;;;;-0.77;86.84;93707.38;5041004;28;20042;-60
2022/01/08 08:34:44;;;;;;;3.90;1.77;;;;;;;-1.02;85.31;93696.78;5008447;28;20045;-60
2022/01/08 08:37:11;;;;;;;4.47;1.88;;;;;;;-0.63;85.20;93708.50;5009418;28;20041;-60
2022/01/08 08:39:38;;;;;;;5.47;1.70;;;;;;;-0.95;85.01;93704.25;5008458;28;20045;-61
2022/01/08 08:42:05;;;;;;;8.70;3.72;;;;;;;-0.69;84.99;93714.50;4999185;28;20460;-61
2022/01/08 08:44:31;;;;;;;4.95;2.28;;;;;;;-0.70;85.25;93712.97;5005441;28;20398;-60
2022/01/08 08:46:58;;;;;;;3.58;1.52;;;;;;;-0.30;84.79;93717.31;5009158;28;20041;-61
2022/01/08 08:49:26;;;;;;;8.07;2.80;;;;;;;0.07;83.29;93725.84;5008643;28;20049;-60
2022/01/08 08:51:54;;;;;;;8.73;2.47;;;;;;;0.37;81.95;93723.38;5008866;28;20056;-61
2022/01/08 08:54:21;;;;;;;7.05;2.55;;;;;;;0.79;79.89;93728.03;5009181;28;20049;-61
2022/01/08 08:56:48;;;;;;;12.13;5.32;;;;;;;2.74;74.29;93729.75;5007923;28;20666;-61
2022/01/08 08:59:15;;;;;;;8.40;3.17;;;;;;;5.62;62.85;93734.16;5009358;28;20038;-59
2022/01/08 09:01:42;;;;;;;6.18;2.10;;;;;;;5.15;59.63;93736.78;5008514;28;20056;-59
2022/01/08 09:04:08;;;;;;;5.13;1.70;;;;;;;3.56;64.48;93751.47;5008998;28;20054;-59
2022/01/08 09:06:36;;;;;;;5.63;1.98;;;;;;;3.18;67.51;93742.59;5023000;28;20227;-59
2022/01/08 09:09:03;;;;;;;7.38;3.35;;;;;;;1.73;69.67;93752.00;5009230;28;20046;-59
2022/01/08 09:11:30;;;;;;;5.60;1.80;;;;;;;1.02;72.52;93751.59;5008270;28;20069;-58
2022/01/08 09:13:57;;;;;;;4.47;1.98;;;;;;;2.29;69.58;93755.88;5008439;28;20049;-59
2022/01/08 09:16:24;;;;;;;6.27;2.90;;;;;;;2.37;70.34;93754.84;5008395;28;20048;-58
2022/01/08 09:18:51;;;;;;;5.30;2.30;;;;;;;4.52;62.47;93738.91;5008264;28;20056;-59
2022/01/08 09:21:18;;;;;;;8.35;1.85;;;;;;;4.33;60.65;93740.75;5008962;28;20052;-59
2022/01/08 09:23:45;;;;;;;6.63;1.95;;;;;;;7.55;56.78;93741.78;5007872;28;20514;-60
2022/01/08 09:26:12;;;;;;;4.30;1.83;;;;;;;8.53;48.75;93747.22;5008807;28;20092;-60
2022/01/08 09:28:39;;;;;;;7.63;2.87;;;;;;;10.09;44.49;93744.81;5007895;28;20044;-60
2022/01/08 09:31:06;;;;;;;4.60;1.80;;;;;;;8.45;46.92;93740.28;5012188;28;20067;-60
2022/01/08 09:33:34;;;;;;;5.30;1.80;;;;;;;5.93;51.83;93738.81;5026801;28;20046;-60
2022/01/08 09:36:01;;;;;;;5.53;1.60;;;;;;;4.78;56.78;93746.78;5012470;28;20045;-60
2022/01/08 09:38:27;;;;;;;6.32;2.30;;;;;;;7.15;52.53;93743.97;5011985;28;20479;-59
2022/01/08 09:40:54;;;;;;;6.67;3.57;;;;;;;9.51;45.93;93750.38;5010085;28;20049;-60
2022/01/08 09:43:21;;;;;;;8.63;2.70;;;;;;;11.40;40.16;93749.06;5012304;28;20072;-58
2022/01/08 09:45:48;;;;;;;6.18;2.10;;;;;;;12.06;39.59;93746.47;5027594;28;20322;-61
2022/01/08 09:48:17;;;;;;;3.40;1.75;;;;;;;9.91;41.83;93753.31;5012275;28;20375;-60
2022/01/08 09:50:44;;;;;;;6.75;2.60;;;;;;;7.33;46.77;93762.19;5011693;28;20042;-60
2022/01/08 09:53:11;;;;;;;3.20;1.40;;;;;;;4.05;54.60;93773.94;5012293;28;20052;-60
2022/01/08 09:55:38;;;;;;;5.30;2.10;;;;;;;3.99;56.67;93775.47;5011348;28;20050;-59
2022/01/08 09:58:06;;;;;;;5.80;2.33;;;;;;;3.14;59.30;93778.94;5010191;28;20041;-60
2022/01/08 10:00:34;;;;;;;5.50;2.20;;;;;;;1.88;62.65;93771.16;5011163;28;20073;-59
2022/01/08 10:03:26;;;;;;;9.63;3.40;;;;;;;1.69;65.21;93766.59;5011842;28;20042;-59
2022/01/08 10:05:55;;;;;;;6.83;3.27;;;;;;;1.78;64.96;93772.56;5010696;28;21173;-59
2022/01/08 10:08:42;;;;;;;8.05;3.05;;;;;;;1.94;63.74;93770.47;5011131;28;20068;-61
2022/01/08 10:11:10;;;;;;;5.97;2.72;;;;;;;1.72;64.35;93768.59;5011566;28;20472;-61
2022/01/08 10:13:42;;;;;;;6.13;1.90;;;;;;;1.48;65.41;93769.75;5010826;28;20199;-61
2022/01/08 10:18:59;;;;;;;4.57;1.67;;;;;;;2.50;62.54;93777.06;5009422;28;20376;-59
2022/01/08 10:21:29;;;;;;;7.15;2.10;;;;;;;2.36;63.47;93768.75;5011045;28;20056;-59
2022/01/08 10:23:57;;;;;;;4.32;1.60;;;;;;;2.45;62.83;93763.81;5026171;28;20046;-60
2022/01/08 10:26:31;;;;;;;7.88;1.90;;;;;;;2.47;62.02;93758.81;5009666;28;20038;-59
2022/01/08 10:29:06;;;;;;;4.30;1.90;;;;;;;2.47;62.58;93755.34;5011349;28;20048;-59
2022/01/08 10:31:42;;;;;;;10.97;2.40;;;;;;;2.62;62.64;93750.88;5010816;28;20057;-59
2022/01/08 10:34:14;;;;;;;7.68;2.20;;;;;;;2.38;61.15;93750.97;5011450;28;20047;-60
2022/01/08 10:36:47;;;;;;;6.28;2.60;;;;;;;4.23;58.41;93752.34;5010691;28;20089;-60
2022/01/08 10:39:20;;;;;;;5.45;1.90;;;;;;;5.43;54.65;93748.91;5011428;28;20042;-60
2022/01/08 10:41:49;;;;;;;8.43;2.65;;;;;;;4.57;54.68;93747.47;5007769;28;20896;-61
2022/01/08 10:44:28;;;;;;;55.47;14.53;;;;;;;2.73;60.00;93749.06;5010044;28;20054;-60
2022/01/08 10:47:00;;;;;;;6.32;1.90;;;;;;;2.74;61.41;93754.13;5010243;28;20768;-60
2022/01/08 10:49:38;;;;;;;10.57;4.90;;;;;;;3.21;60.58;93746.50;5010737;28;20048;-60
2022/01/08 10:52:07;;;;;;;5.60;2.40;;;;;;;5.20;57.56;93739.16;5011141;28;20042;-60
2022/01/08 10:54:37;;;;;;;24.00;9.85;;;;;;;7.66;48.81;93736.22;5010646;28;20066;-60
2022/01/08 10:57:07;;;;;;;9.60;4.63;;;;;;;8.88;45.53;93731.63;5011031;28;20398;-61
2022/01/08 10:59:35;;;;;;;18.10;9.25;;;;;;;11.60;40.29;93734.50;5010510;28;20057;-61
2022/01/08 11:02:03;;;;;;;3.70;1.80;;;;;;;12.01;38.19;93722.19;5010725;28;20046;-61
2022/01/08 11:05:01;;;;;;;5.95;1.92;;;;;;;11.42;38.15;93723.16;5010301;28;20037;-61
2022/01/08 11:07:30;;;;;;;8.38;4.80;;;;;;;10.68;39.75;93711.25;5010868;28;20049;-60
2022/01/08 11:10:04;;;;;;;5.37;2.23;;;;;;;9.82;41.52;93717.41;5009378;28;20038;-61
2022/01/08 11:12:39;;;;;;;3.47;1.70;;;;;;;11.11;39.45;93715.94;5024487;28;20507;-61
2022/01/08 11:17:44;;;;;;;11.45;6.75;;;;;;;8.97;43.28;93715.47;5009977;28;20141;-61
2022/01/08 11:20:12;;;;;;;8.63;4.80;;;;;;;9.89;41.57;93714.59;5010466;28;20058;-61
2022/01/08 11:22:43;;;;;;;5.73;2.67;;;;;;;9.89;41.87;93709.88;5009790;28;20069;-61
2022/01/08 11:25:24;;;;;;;3.90;1.30;;;;;;;8.14;45.04;93708.13;5010465;28;20050;-61
2022/01/08 11:28:10;;;;;;;4.00;1.40;;;;;;;7.51;46.59;93719.19;5009602;28;20808;-61
2022/01/08 11:30:43;;;;;;;6.10;3.00;;;;;;;6.76;47.81;93709.47;5010075;28;20164;-60
2022/01/08 11:33:19;;;;;;;7.20;2.75;;;;;;;6.74;48.25;93697.38;5010553;28;20503;-61
2022/01/08 11:35:47;;;;;;;5.87;2.00;;;;;;;4.96;53.07;93703.34;5009877;28;20053;-61
2022/01/08 11:38:18;;;;;;;4.03;1.80;;;;;;;5.32;53.30;93700.69;5010266;28;20050;-60
2022/01/08 11:40:47;;;;;;;2.97;1.38;;;;;;;5.58;51.86;93690.59;5006338;28;20052;-60
2022/01/08 11:43:17;;;;;;;4.75;1.60;;;;;;;5.61;51.95;93692.53;4999314;28;20080;-60
2022/01/08 11:45:55;;;;;;;3.30;1.20;;;;;;;4.29;53.86;93688.34;5010019;28;20040;-60
2022/01/08 11:48:28;;;;;;;12.33;4.27;;;;;;;3.69;55.70;93691.47;5009934;28;20049;-59
2022/01/08 11:50:58;;;;;;;5.57;1.70;;;;;;;4.65;55.03;93695.84;5010176;28;20049;-61
2022/01/08 11:53:27;;;;;;;3.78;1.60;;;;;;;4.40;55.83;93683.72;5009392;28;20058;-59
2022/01/08 11:56:00;;;;;;;3.65;1.40;;;;;;;4.05;55.39;93678.13;5009624;28;20293;-60
2022/01/08 11:58:30;;;;;;;3.85;1.65;;;;;;;3.53;57.19;93667.34;5030922;28;20053;-61
2022/01/08 12:01:11;;;;;;;3.17;1.00;;;;;;;3.37;57.18;93670.31;5009699;28;20402;-62
2022/01/08 12:03:50;;;;;;;3.30;1.40;;;;;;;3.10;58.12;93656.13;5009470;28;20050;-62
2022/01/08 12:06:20;;;;;;;3.75;1.50;;;;;;;3.07;59.33;93659.59;5009618;28;20053;-62
2022/01/08 12:08:57;;;;;;;5.07;2.00;;;;;;;3.27;59.84;93657.44;5008999;28;20672;-61